createdAt,value
2023-01-01T00:02:07.568Z,10.40
2023-01-01T00:04:37.180Z,10.32
2023-01-01T00:07:04.285Z,13.20
2023-01-01T00:09:49.374Z,11.48
2023-01-01T00:12:16.498Z,12.15
2023-01-01T00:14:44.429Z,12.40
2023-01-01T00:17:11.626Z,11.05
2023-01-01T00:19:38.657Z,12.32
2023-01-01T00:22:27.795Z,11.05
2023-01-01T00:24:52.474Z,12.23
2023-01-01T00:27:19.571Z,9.90
2023-01-01T00:29:46.300Z,10.38
2023-01-01T00:32:17.610Z,10.23
2023-01-01T00:34:47.571Z,11.82
2023-01-01T00:37:15.445Z,10.95
2023-01-01T00:39:42.200Z,12.65
2023-01-01T00:42:09.304Z,10.63
2023-01-01T00:44:36.034Z,7.90
2023-01-01T00:47:03.101Z,10.43
2023-01-01T00:49:29.819Z,10.75
2023-01-01T00:51:56.877Z,11.43
2023-01-01T00:54:23.655Z,12.80
2023-01-01T00:56:50.763Z,9.77
2023-01-01T00:59:17.530Z,11.75
2023-01-01T01:01:44.730Z,10.00
2023-01-01T01:04:11.567Z,10.40
2023-01-01T01:06:38.639Z,9.75
2023-01-01T01:09:07.133Z,12.80
2023-01-01T01:11:34.335Z,12.25
2023-01-01T01:14:01.076Z,9.68
2023-01-01T01:16:30.000Z,10.35
2023-01-01T01:18:59.524Z,10.27
2023-01-01T01:21:27.687Z,10.02
2023-01-01T01:23:55.034Z,10.00
2023-01-01T01:26:23.790Z,13.27
2023-01-01T01:28:50.930Z,10.88
2023-01-01T01:31:18.990Z,9.43
2023-01-01T01:33:46.201Z,9.77
2023-01-01T01:36:13.554Z,10.77
2023-01-01T01:38:40.424Z,11.05
2023-01-01T01:41:07.651Z,10.85
2023-01-01T01:43:34.363Z,11.80
2023-01-01T01:46:09.139Z,10.43
2023-01-01T01:48:54.075Z,11.10
2023-01-01T01:51:33.534Z,10.32
2023-01-01T01:54:01.712Z,9.57
2023-01-01T01:56:31.917Z,11.13
2023-01-01T01:58:58.717Z,8.50
2023-01-01T02:01:25.944Z,9.75
2023-01-01T02:03:57.505Z,9.30
2023-01-01T02:06:26.486Z,10.23
2023-01-01T02:08:53.457Z,9.38
2023-01-01T02:11:22.185Z,8.65
2023-01-01T02:13:49.767Z,9.88
2023-01-01T02:16:21.549Z,10.88
2023-01-01T02:19:01.907Z,9.07
2023-01-01T02:21:40.308Z,10.43
2023-01-01T02:24:16.114Z,7.80
2023-01-01T02:27:08.013Z,9.38
2023-01-01T02:29:38.552Z,10.57
2023-01-01T02:32:14.591Z,9.82
2023-01-01T02:34:53.581Z,11.48
2023-01-01T02:37:20.666Z,11.50
2023-01-01T02:39:53.219Z,9.82
2023-01-01T02:42:20.290Z,11.70
2023-01-01T02:44:48.866Z,10.70
2023-01-01T02:47:18.177Z,11.93
2023-01-01T02:50:07.019Z,14.48
2023-01-01T02:52:37.160Z,11.55
2023-01-01T02:55:33.283Z,14.20
2023-01-01T02:58:32.275Z,15.82
2023-01-01T03:01:08.258Z,12.10
2023-01-01T03:03:40.170Z,13.98
2023-01-01T03:06:24.036Z,14.73
2023-01-01T03:09:11.408Z,16.90
2023-01-01T03:11:39.664Z,15.05
2023-01-01T03:14:27.862Z,15.18
2023-01-01T03:17:01.188Z,15.18
2023-01-01T03:19:30.485Z,13.73
2023-01-01T03:21:57.195Z,14.73
2023-01-01T03:24:44.269Z,14.68
2023-01-01T03:27:36.216Z,14.45
2023-01-01T03:30:08.272Z,12.57
2023-01-01T03:33:01.092Z,11.63
2023-01-01T03:35:35.315Z,15.18
2023-01-01T03:38:02.838Z,13.40
2023-01-01T03:40:29.945Z,14.45
2023-01-01T03:42:59.956Z,12.65
2023-01-01T03:45:29.769Z,9.93
2023-01-01T03:47:56.653Z,11.55
2023-01-01T03:50:31.769Z,11.55
2023-01-01T03:53:17.786Z,12.38
2023-01-01T03:55:46.937Z,10.07
2023-01-01T03:58:27.419Z,9.18
2023-01-01T04:00:57.743Z,9.63
2023-01-01T04:03:25.893Z,10.05
2023-01-01T04:05:52.989Z,9.45
2023-01-01T04:08:19.695Z,9.65
2023-01-01T04:10:51.701Z,9.95
2023-01-01T04:13:18.473Z,12.23
2023-01-01T04:15:45.535Z,14.70
2023-01-01T04:18:12.294Z,13.50
2023-01-01T04:20:39.402Z,12.15
2023-01-01T04:23:06.182Z,11.93
2023-01-01T04:25:33.270Z,12.60
2023-01-01T04:28:02.342Z,11.25
2023-01-01T04:30:29.686Z,9.65
2023-01-01T04:32:56.603Z,8.98
2023-01-01T04:35:23.653Z,9.90
2023-01-01T04:37:50.365Z,11.75
2023-01-01T04:40:17.821Z,8.30
2023-01-01T04:42:44.559Z,12.55
2023-01-01T04:45:15.533Z,8.10
2023-01-01T04:47:42.628Z,8.60
2023-01-01T04:50:09.803Z,9.20
2023-01-01T04:52:36.764Z,10.95
2023-01-01T04:55:03.900Z,9.32
2023-01-01T04:57:30.934Z,8.55
2023-01-01T04:59:58.056Z,7.55
2023-01-01T05:02:24.940Z,7.75
2023-01-01T05:04:52.048Z,8.38
2023-01-01T05:07:18.767Z,10.90
2023-01-01T05:09:45.853Z,9.70
2023-01-01T05:12:12.632Z,8.27
2023-01-01T05:14:39.753Z,6.35
2023-01-01T05:17:06.496Z,7.03
2023-01-01T05:19:33.641Z,7.97
2023-01-01T05:22:05.358Z,8.02
2023-01-01T05:24:37.457Z,9.70
2023-01-01T05:27:04.231Z,6.63
2023-01-01T05:29:31.283Z,7.97
2023-01-01T05:31:58.097Z,7.63
2023-01-01T05:34:25.565Z,6.70
2023-01-01T05:36:52.415Z,7.13
2023-01-01T05:39:19.413Z,6.82
2023-01-01T05:41:46.151Z,8.45
2023-01-01T05:44:13.194Z,6.57
2023-01-01T05:46:40.019Z,7.85
2023-01-01T05:49:09.415Z,11.68
2023-01-01T05:54:02.267Z,7.18
2023-01-01T05:56:29.004Z,7.82
2023-01-01T05:58:56.329Z,7.93
2023-01-01T06:01:24.967Z,6.65
2023-01-01T06:03:52.879Z,8.27
2023-01-01T06:06:21.444Z,9.32
2023-01-01T06:08:55.876Z,11.07
2023-01-01T06:11:22.802Z,8.25
2023-01-01T06:13:52.567Z,7.43
2023-01-01T06:16:19.354Z,7.63
2023-01-01T06:18:46.435Z,9.40
2023-01-01T06:21:13.924Z,8.18
2023-01-01T06:23:41.062Z,8.35
2023-01-01T06:26:18.630Z,8.90
2023-01-01T06:28:45.897Z,8.85
2023-01-01T06:31:13.627Z,8.38
2023-01-01T06:33:40.817Z,8.25
2023-01-01T06:36:09.397Z,10.82
2023-01-01T06:38:38.367Z,8.95
2023-01-01T06:41:06.928Z,10.35
2023-01-01T06:43:34.673Z,9.35
2023-01-01T06:46:11.064Z,8.38
2023-01-01T06:48:38.154Z,9.68
2023-01-01T06:51:09.218Z,8.45
2023-01-01T06:53:36.299Z,8.35
2023-01-01T06:56:03.465Z,8.25
2023-01-01T06:58:30.663Z,8.98
2023-01-01T07:01:08.647Z,10.60
2023-01-01T07:03:36.657Z,9.35
2023-01-01T07:06:03.950Z,9.63
2023-01-01T07:08:30.720Z,8.07
2023-01-01T07:10:58.046Z,9.90
2023-01-01T07:13:25.377Z,8.55
2023-01-01T07:15:52.530Z,10.23
2023-01-01T07:18:22.915Z,9.02
2023-01-01T07:20:51.249Z,10.38
2023-01-01T07:23:18.026Z,9.48
2023-01-01T07:25:45.262Z,10.50
2023-01-01T07:28:13.169Z,12.30
2023-01-01T07:30:40.304Z,11.70
2023-01-01T07:33:09.573Z,10.90
2023-01-01T07:35:36.626Z,13.13
2023-01-01T07:38:03.368Z,13.52
2023-01-01T07:40:30.481Z,12.43
2023-01-01T07:42:57.241Z,9.88
2023-01-01T07:45:24.991Z,9.88
2023-01-01T07:47:53.959Z,10.10
2023-01-01T07:50:21.517Z,11.55
2023-01-01T07:52:48.301Z,13.77
2023-01-01T07:55:16.126Z,11.95
2023-01-01T07:57:43.509Z,9.25
2023-01-01T08:00:12.040Z,14.10
2023-01-01T08:02:39.015Z,11.35
2023-01-01T08:05:06.623Z,11.57
2023-01-01T08:07:33.412Z,10.75
2023-01-01T08:10:00.777Z,11.15
2023-01-01T08:12:27.568Z,10.40
2023-01-01T08:14:54.590Z,9.23
2023-01-01T08:17:21.350Z,11.73
2023-01-01T08:19:49.378Z,10.25
2023-01-01T08:22:16.252Z,10.88
2023-01-01T08:24:43.275Z,11.02
2023-01-01T08:27:14.342Z,9.43
2023-01-01T08:29:41.789Z,10.55
2023-01-01T08:32:08.581Z,10.13
2023-01-01T08:34:35.743Z,10.57
2023-01-01T08:37:02.515Z,8.88
2023-01-01T08:39:29.739Z,8.50
2023-01-01T08:41:56.512Z,10.48
2023-01-01T08:44:23.595Z,9.38
2023-01-01T08:46:52.662Z,11.18
2023-01-01T08:49:19.766Z,9.38
2023-01-01T08:51:46.488Z,10.15
2023-01-01T08:54:13.688Z,10.30
2023-01-01T08:56:40.406Z,10.05
2023-01-01T08:59:07.430Z,8.57
2023-01-01T09:01:34.337Z,9.25
2023-01-01T09:04:01.501Z,10.50
2023-01-01T09:06:28.196Z,10.15
2023-01-01T09:08:55.254Z,16.75
2023-01-01T09:11:23.355Z,12.75
2023-01-01T09:13:50.452Z,13.70
2023-01-01T09:16:17.444Z,11.63
2023-01-01T09:18:44.555Z,15.20
2023-01-01T09:21:11.312Z,11.57
2023-01-01T09:23:38.385Z,11.18
2023-01-01T09:26:06.020Z,11.88
2023-01-01T09:28:33.221Z,9.95
2023-01-01T09:31:01.142Z,12.57
2023-01-01T09:33:28.696Z,10.57
2023-01-01T09:35:55.644Z,11.38
2023-01-01T09:38:22.759Z,12.02
2023-01-01T09:41:14.456Z,9.18
2023-01-01T09:43:56.748Z,10.00
2023-01-01T09:46:31.185Z,12.23
2023-01-01T09:51:26.583Z,8.68
2023-01-01T09:54:05.230Z,10.50
2023-01-01T09:56:32.080Z,8.57
2023-01-01T09:58:59.390Z,8.30
2023-01-01T10:01:45.116Z,8.00
2023-01-01T10:04:15.176Z,8.63
2023-01-01T10:06:44.901Z,8.25
2023-01-01T10:09:34.522Z,7.43
2023-01-01T10:12:07.105Z,9.23
2023-01-01T10:14:39.169Z,9.98
2023-01-01T10:17:29.210Z,8.57
2023-01-01T10:20:03.259Z,8.63
2023-01-01T10:22:37.664Z,7.43
2023-01-01T10:25:19.971Z,8.27
2023-01-01T10:28:06.972Z,8.20
2023-01-01T10:30:34.024Z,8.27
2023-01-01T10:33:00.772Z,7.32
2023-01-01T10:35:36.080Z,7.85
2023-01-01T10:38:03.770Z,8.25
2023-01-01T10:40:30.909Z,8.25
2023-01-01T10:42:59.224Z,8.15
2023-01-01T10:45:32.548Z,7.47
2023-01-01T10:48:24.270Z,8.02
2023-01-01T10:50:51.662Z,6.25
2023-01-01T10:53:26.289Z,7.43
2023-01-01T10:55:58.819Z,7.15
2023-01-01T10:58:38.701Z,7.18
2023-01-01T11:01:08.068Z,7.32
2023-01-01T11:03:35.015Z,6.93
2023-01-01T11:06:02.771Z,8.07
2023-01-01T11:08:33.990Z,8.23
2023-01-01T11:11:02.133Z,8.07
2023-01-01T11:13:29.315Z,8.23
2023-01-01T11:15:56.479Z,6.20
2023-01-01T11:18:36.120Z,7.40
2023-01-01T11:21:04.535Z,6.00
2023-01-01T11:23:35.081Z,8.10
2023-01-01T11:26:14.141Z,9.10
2023-01-01T11:28:41.219Z,7.28
2023-01-01T11:31:13.567Z,6.65
2023-01-01T11:33:50.579Z,5.50
2023-01-01T11:36:25.364Z,5.97
2023-01-01T11:39:07.792Z,7.22
2023-01-01T11:41:45.352Z,7.60
2023-01-01T11:44:12.503Z,5.55
2023-01-01T11:46:39.605Z,6.85
2023-01-01T11:49:15.704Z,7.45
2023-01-01T11:51:42.857Z,6.07
2023-01-01T11:54:32.829Z,6.38
2023-01-01T11:57:22.170Z,6.72
2023-01-01T12:00:00.690Z,5.45
2023-01-01T12:02:36.811Z,5.78
2023-01-01T12:05:16.212Z,5.85
2023-01-01T12:07:44.400Z,4.97
2023-01-01T12:10:25.637Z,6.90
2023-01-01T12:13:01.843Z,4.82
2023-01-01T12:15:47.427Z,5.05
2023-01-01T12:18:35.342Z,6.13
2023-01-01T12:21:05.437Z,5.57
2023-01-01T12:23:32.557Z,5.50
2023-01-01T12:26:12.921Z,4.50
2023-01-01T12:28:59.356Z,6.78
2023-01-01T12:31:51.173Z,5.15
2023-01-01T12:34:36.613Z,3.50
2023-01-01T12:37:10.561Z,4.57
2023-01-01T12:40:25.255Z,5.10
2023-01-01T12:43:07.651Z,5.55
2023-01-01T12:45:43.693Z,5.70
2023-01-01T12:48:37.554Z,5.25
2023-01-01T12:51:13.798Z,6.78
2023-01-01T12:54:13.346Z,5.88
2023-01-01T12:56:44.711Z,6.50
2023-01-01T12:59:22.496Z,6.57
2023-01-01T13:01:49.871Z,7.45
2023-01-01T13:04:18.273Z,6.72
2023-01-01T13:06:48.365Z,7.25
2023-01-01T13:09:15.777Z,8.73
2023-01-01T13:11:45.238Z,7.60
2023-01-01T13:14:12.722Z,10.40
2023-01-01T13:16:45.641Z,7.43
2023-01-01T13:19:31.936Z,8.13
2023-01-01T13:21:59.829Z,8.95
2023-01-01T13:24:26.904Z,9.23
2023-01-01T13:26:54.115Z,10.73
2023-01-01T13:29:20.824Z,10.45
2023-01-01T13:31:47.895Z,13.38
2023-01-01T13:34:37.680Z,11.65
2023-01-01T13:37:11.053Z,11.63
2023-01-01T13:39:59.882Z,13.23
2023-01-01T13:42:52.634Z,12.68
2023-01-01T13:46:09.303Z,12.57
2023-01-01T13:48:32.780Z,16.52
2023-01-01T13:51:47.204Z,18.63
2023-01-01T13:54:55.736Z,13.60
2023-01-01T13:57:25.359Z,15.45
2023-01-01T13:59:55.289Z,14.80
2023-01-01T14:02:36.047Z,15.32
2023-01-01T14:05:31.162Z,16.35
2023-01-01T14:07:58.021Z,14.95
2023-01-01T14:10:28.275Z,14.02
2023-01-01T14:13:16.367Z,17.23
2023-01-01T14:15:46.457Z,15.20
2023-01-01T14:18:14.763Z,14.23
2023-01-01T14:20:52.204Z,12.70
2023-01-01T14:23:33.743Z,13.98
2023-01-01T14:26:01.095Z,16.90
2023-01-01T14:28:30.219Z,22.83
2023-01-01T14:30:58.287Z,25.83
2023-01-01T14:33:27.144Z,24.25
2023-01-01T14:35:55.203Z,25.77
2023-01-01T14:38:27.170Z,28.77
2023-01-01T14:41:06.416Z,26.33
2023-01-01T14:43:33.172Z,26.98
2023-01-01T14:46:02.564Z,28.00
2023-01-01T14:48:32.850Z,30.90
2023-01-01T14:50:59.851Z,24.60
2023-01-01T14:53:33.463Z,27.05
2023-01-01T14:56:00.507Z,24.17
2023-01-01T14:58:28.074Z,24.48
2023-01-01T15:01:13.418Z,26.20
2023-01-01T15:03:40.247Z,24.55
2023-01-01T15:06:16.293Z,21.85
2023-01-01T15:08:43.073Z,20.88
2023-01-01T15:11:10.281Z,24.30
2023-01-01T15:13:37.045Z,19.20
2023-01-01T15:16:18.091Z,18.58
2023-01-01T15:18:50.529Z,17.35
2023-01-01T15:21:38.766Z,16.02
2023-01-01T15:24:16.266Z,17.77
2023-01-01T15:26:45.347Z,17.38
2023-01-01T15:29:16.745Z,16.67
2023-01-01T15:31:47.543Z,14.82
2023-01-01T15:34:35.573Z,14.02
2023-01-01T15:37:31.883Z,15.40
2023-01-01T15:40:00.208Z,17.88
2023-01-01T15:42:38.172Z,14.15
2023-01-01T15:45:27.500Z,12.73
2023-01-01T15:47:58.260Z,13.25
2023-01-01T15:50:25.092Z,14.65
2023-01-01T15:52:57.088Z,13.45
2023-01-01T15:55:25.843Z,14.98
2023-01-01T15:57:52.878Z,12.15
2023-01-01T16:00:30.997Z,12.25
2023-01-01T16:03:00.356Z,12.60
2023-01-01T16:05:27.519Z,13.90
2023-01-01T16:08:04.835Z,11.75
2023-01-01T16:10:32.044Z,10.63
2023-01-01T16:12:59.271Z,10.90
2023-01-01T16:15:26.050Z,12.68
2023-01-01T16:17:53.173Z,15.05
2023-01-01T16:20:20.285Z,12.63
2023-01-01T16:22:47.444Z,11.93
2023-01-01T16:25:22.158Z,10.63
2023-01-01T16:27:49.260Z,11.80
2023-01-01T16:30:16.120Z,14.88
2023-01-01T16:32:43.148Z,15.43
2023-01-01T16:35:12.467Z,12.95
2023-01-01T16:37:39.635Z,12.10
2023-01-01T16:40:07.605Z,13.55
2023-01-01T16:42:34.679Z,13.80
2023-01-01T16:45:01.541Z,12.15
2023-01-01T16:47:29.896Z,13.48
2023-01-01T16:49:56.638Z,13.82
2023-01-01T16:52:23.683Z,14.07
2023-01-01T16:54:50.505Z,21.48
2023-01-01T16:57:17.572Z,16.58
2023-01-01T16:59:44.339Z,17.13
2023-01-01T17:02:11.590Z,19.67
2023-01-01T17:04:38.455Z,18.55
2023-01-01T17:07:05.548Z,21.77
2023-01-01T17:09:32.342Z,23.45
2023-01-01T17:11:59.379Z,23.00
2023-01-01T17:14:26.276Z,19.05
2023-01-01T17:16:56.365Z,24.30
2023-01-01T17:19:23.118Z,26.23
2023-01-01T17:21:50.298Z,27.35
2023-01-01T17:24:17.699Z,25.75
2023-01-01T17:26:45.063Z,26.33
2023-01-01T17:29:12.128Z,25.88
2023-01-01T17:31:39.278Z,25.83
2023-01-01T17:34:06.056Z,26.77
2023-01-01T17:36:33.169Z,24.92
2023-01-01T17:38:59.985Z,24.52
2023-01-01T17:41:27.106Z,24.30
2023-01-01T17:43:54.056Z,22.95
2023-01-01T17:46:29.761Z,29.00
2023-01-01T17:48:56.858Z,24.38
2023-01-01T17:51:24.012Z,26.10
2023-01-01T17:53:50.830Z,27.42
2023-01-01T17:56:18.563Z,25.00
2023-01-01T17:58:45.982Z,31.02
2023-01-01T18:01:13.242Z,30.73
2023-01-01T18:03:40.487Z,32.08
2023-01-01T18:06:07.691Z,30.20
2023-01-01T18:08:34.526Z,34.63
2023-01-01T18:11:01.660Z,33.97
2023-01-01T18:13:28.402Z,38.97
2023-01-01T18:16:00.248Z,33.63
2023-01-01T18:18:28.121Z,35.85
2023-01-01T18:21:02.189Z,34.33
2023-01-01T18:23:35.731Z,37.15
2023-01-01T18:26:03.116Z,35.90
2023-01-01T18:28:29.970Z,32.33
2023-01-01T18:31:16.989Z,35.95
2023-01-01T18:33:44.150Z,31.65
2023-01-01T18:36:16.081Z,33.10
2023-01-01T18:38:45.088Z,32.20
2023-01-01T18:41:30.580Z,31.08
2023-01-01T18:43:57.762Z,27.20
2023-01-01T18:46:24.917Z,28.77
2023-01-01T18:48:58.677Z,29.92
2023-01-01T18:51:26.400Z,29.45
2023-01-01T18:53:57.799Z,27.10
2023-01-01T18:56:24.975Z,29.55
2023-01-01T18:58:51.961Z,27.75
2023-01-01T19:01:21.745Z,28.15
2023-01-01T19:03:49.875Z,29.45
2023-01-01T19:06:30.521Z,26.20
2023-01-01T19:09:23.369Z,26.70
2023-01-01T19:11:51.743Z,27.25
2023-01-01T19:14:25.432Z,21.35
2023-01-01T19:16:55.745Z,22.52
2023-01-01T19:19:23.478Z,22.98
2023-01-01T19:21:52.619Z,24.63
2023-01-01T19:24:26.857Z,21.60
2023-01-01T19:27:00.181Z,21.70
2023-01-01T19:29:29.374Z,23.88
2023-01-01T19:31:57.177Z,26.55
2023-01-01T19:34:24.256Z,25.42
2023-01-01T19:36:51.506Z,29.95
2023-01-01T19:39:18.298Z,22.77
2023-01-01T19:41:45.469Z,22.25
2023-01-01T19:44:12.376Z,22.55
2023-01-01T19:46:39.599Z,23.20
2023-01-01T19:49:06.528Z,22.15
2023-01-01T19:51:33.582Z,22.83
2023-01-01T19:54:00.381Z,22.63
2023-01-01T19:56:27.559Z,19.70
2023-01-01T19:58:54.376Z,21.00
2023-01-01T20:01:21.647Z,20.25
2023-01-01T20:03:54.617Z,20.73
2023-01-01T20:06:23.407Z,20.25
2023-01-01T20:08:50.214Z,20.85
2023-01-01T20:11:17.430Z,20.00
2023-01-01T20:13:44.182Z,18.50
2023-01-01T20:16:11.292Z,17.83
2023-01-01T20:18:38.154Z,20.98
2023-01-01T20:21:26.641Z,19.95
2023-01-01T20:23:54.932Z,21.98
2023-01-01T20:26:23.760Z,25.00
2023-01-01T20:29:09.283Z,20.80
2023-01-01T20:34:03.530Z,19.45
2023-01-01T20:36:49.181Z,23.67
2023-01-01T20:39:15.941Z,21.20
2023-01-01T20:41:43.175Z,23.33
2023-01-01T20:44:10.059Z,23.35
2023-01-01T20:46:38.425Z,21.85
2023-01-01T20:49:05.318Z,21.92
2023-01-01T20:51:32.840Z,22.05
2023-01-01T20:53:59.726Z,21.27
2023-01-01T20:56:27.338Z,21.67
2023-01-01T20:59:00.074Z,24.98
2023-01-01T21:01:28.372Z,22.13
2023-01-01T21:03:55.284Z,19.40
2023-01-01T21:06:24.657Z,19.65
2023-01-01T21:08:52.453Z,21.98
2023-01-01T21:11:19.565Z,20.67
2023-01-01T21:13:46.610Z,19.20
2023-01-01T21:16:18.175Z,21.42
2023-01-01T21:18:45.595Z,19.83
2023-01-01T21:21:18.775Z,18.63
2023-01-01T21:23:45.709Z,18.73
2023-01-01T21:26:19.293Z,19.92
2023-01-01T21:28:47.515Z,20.50
2023-01-01T21:31:15.422Z,18.50
2023-01-01T21:33:43.041Z,18.55
2023-01-01T21:36:17.815Z,17.98
2023-01-01T21:38:45.038Z,22.73
2023-01-01T21:41:19.323Z,18.60
2023-01-01T21:43:56.906Z,18.85
2023-01-01T21:46:30.110Z,20.83
2023-01-01T21:48:57.795Z,18.25
2023-01-01T21:51:41.403Z,16.65
2023-01-01T21:54:12.055Z,20.10
2023-01-01T21:56:40.226Z,16.65
2023-01-01T21:59:25.899Z,18.58
2023-01-01T22:01:58.340Z,18.38
2023-01-01T22:04:26.364Z,17.52
2023-01-01T22:06:53.889Z,16.38
2023-01-01T22:09:56.008Z,14.80
2023-01-01T22:12:24.761Z,15.63
2023-01-01T22:14:52.752Z,15.60
2023-01-01T22:17:21.089Z,13.80
2023-01-01T22:19:48.526Z,14.43
2023-01-01T22:22:19.891Z,14.57
2023-01-01T22:25:25.472Z,12.80
2023-01-01T22:27:52.545Z,16.55
2023-01-01T22:30:19.308Z,11.63
2023-01-01T22:32:50.420Z,13.77
2023-01-01T22:35:29.995Z,13.75
2023-01-01T22:37:57.132Z,11.73
2023-01-01T22:40:29.908Z,11.60
2023-01-01T22:42:57.718Z,12.43
2023-01-01T22:45:24.577Z,11.68
2023-01-01T22:47:51.636Z,13.45
2023-01-01T22:50:26.187Z,10.98
2023-01-01T22:52:53.327Z,13.85
2023-01-01T22:55:20.128Z,12.13
2023-01-01T22:57:47.222Z,13.55
2023-01-01T23:00:14.560Z,11.93
2023-01-01T23:02:41.631Z,11.30
2023-01-01T23:05:08.581Z,10.75
2023-01-01T23:07:41.719Z,11.27
2023-01-01T23:10:10.488Z,10.77
2023-01-01T23:12:37.636Z,11.27
2023-01-01T23:15:23.368Z,11.10
2023-01-01T23:17:50.500Z,11.00
2023-01-01T23:20:17.224Z,11.32
2023-01-01T23:22:45.377Z,9.52
2023-01-01T23:25:13.530Z,10.70
2023-01-01T23:27:40.629Z,9.07
2023-01-01T23:30:07.859Z,9.93
2023-01-01T23:32:34.921Z,9.70
2023-01-01T23:35:01.683Z,8.25
2023-01-01T23:37:28.755Z,9.02
2023-01-01T23:39:55.512Z,9.32
2023-01-01T23:42:22.571Z,9.77
2023-01-01T23:44:49.637Z,10.15
2023-01-01T23:47:16.720Z,11.45
2023-01-01T23:49:43.461Z,7.88
2023-01-01T23:52:10.466Z,8.75
2023-01-01T23:54:39.074Z,10.93
2023-01-01T23:57:06.151Z,11.45
2023-01-01T23:59:32.897Z,10.70
